Pelly, Canada
Current Conditions -  °F | °C
As of 7:21 AM on Friday 28 Nov 2014 (Local Time) from CYQV Reporting Station
Light Snow Light Snow  
Wind Chill: -14°   Ceiling: 3200
Heat Index:   Visibility: 6mi
Dew Point:   Wind: 16mph
Humidity: 85%   Direction: 80°E
Pressure: 29.88"   Gusts: NA
Location:  51.87°N, 101.92°W
Report Text: CYQV 281321Z AUTO 08014KT 6SM -SN OVC032 M15/M17 A2988 RMK SLP163
Loading
Personal Weather Stations






























Interactive Weather Map New forecast layout! Learn more

10-Day Weather Forecast

Advertisements
Track Severe Weather on mobile